createdAt,value
2018-02-24T00:01:11.606Z,2.56
2018-02-24T00:06:14.897Z,3.23
2018-02-24T00:11:22.473Z,2.94
2018-02-24T00:16:26.906Z,2.78
2018-02-24T00:21:32.002Z,2.99
2018-02-24T00:26:35.837Z,2.66
2018-02-24T00:31:42.468Z,2.84
2018-02-24T00:36:45.725Z,2.76
2018-02-24T00:41:51.149Z,2.91
2018-02-24T00:46:54.665Z,3.12
2018-02-24T00:52:02.017Z,2.96
2018-02-24T00:57:05.419Z,2.79
2018-02-24T01:02:08.952Z,2.80
2018-02-24T01:07:12.255Z,2.92
2018-02-24T01:12:16.958Z,2.99
2018-02-24T01:17:20.701Z,3.10
2018-02-24T01:22:27.067Z,2.81
2018-02-24T01:27:30.901Z,3.34
2018-02-24T01:32:38.742Z,3.09
2018-02-24T01:37:42.965Z,3.37
2018-02-24T01:42:49.933Z,3.27
2018-02-24T01:47:53.301Z,2.96
2018-02-24T01:53:01.078Z,3.02
2018-02-24T01:58:05.229Z,2.94
2018-02-24T02:03:12.866Z,2.92
2018-02-24T02:08:16.989Z,2.82
2018-02-24T02:13:23.497Z,2.83
2018-02-24T02:18:26.998Z,2.75
2018-02-24T02:23:31.626Z,2.92
2018-02-24T02:28:35.392Z,2.87
2018-02-24T02:33:43.992Z,3.44
2018-02-24T02:38:47.366Z,2.97
2018-02-24T02:43:54.098Z,2.90
2018-02-24T02:48:58.166Z,2.33
2018-02-24T02:54:02.731Z,2.13
2018-02-24T02:59:06.283Z,2.11
2018-02-24T03:04:12.857Z,1.80
2018-02-24T03:09:16.207Z,1.85
2018-02-24T03:14:22.745Z,1.86
2018-02-24T03:19:26.264Z,1.53
2018-02-24T03:24:34.046Z,1.37
2018-02-24T03:29:38.348Z,1.70
2018-02-24T03:34:41.929Z,1.94
2018-02-24T03:39:45.657Z,1.46
2018-02-24T03:44:49.129Z,1.08
2018-02-24T03:49:54.324Z,1.52
2018-02-24T03:54:58.362Z,1.04
2018-02-24T04:00:02.797Z,1.05
2018-02-24T04:05:06.904Z,1.48
2018-02-24T04:10:10.994Z,1.51
2018-02-24T04:15:14.423Z,1.91
2018-02-24T04:20:20.951Z,1.85
2018-02-24T04:25:24.326Z,1.93
2018-02-24T04:30:27.769Z,2.37
2018-02-24T04:35:32.162Z,2.20
2018-02-24T04:40:36.033Z,2.61
2018-02-24T04:45:40.384Z,2.12
2018-02-24T04:50:44.778Z,2.61
2018-02-24T04:55:48.282Z,3.07
2018-02-24T05:00:52.025Z,2.85
2018-02-24T05:05:55.320Z,2.98
2018-02-24T05:10:58.968Z,3.07
2018-02-24T05:16:02.533Z,2.55
2018-02-24T05:21:07.272Z,3.34
2018-02-24T05:26:11.414Z,2.99
2018-02-24T05:31:15.305Z,3.45
2018-02-24T05:36:18.646Z,3.30
2018-02-24T05:41:22.264Z,3.20
2018-02-24T05:46:25.709Z,3.17
2018-02-24T05:51:30.182Z,3.31
2018-02-24T05:56:33.710Z,3.40
2018-02-24T06:01:37.264Z,3.46
2018-02-24T06:06:41.526Z,3.45
2018-02-24T06:11:49.293Z,3.37
2018-02-24T06:16:52.639Z,3.35
2018-02-24T06:21:57.120Z,4.19
2018-02-24T06:27:01.323Z,4.10
2018-02-24T06:32:06.449Z,4.21
2018-02-24T06:37:10.405Z,4.52
2018-02-24T06:42:14.661Z,4.68
2018-02-24T06:47:18.916Z,4.51
2018-02-24T06:52:25.664Z,4.82
2018-02-24T06:57:30.220Z,4.29
2018-02-24T07:02:35.447Z,4.68
2018-02-24T07:07:39.085Z,5.02
2018-02-24T07:12:45.717Z,5.34
2018-02-24T07:17:49.025Z,4.88
2018-02-24T07:22:52.468Z,3.64
2018-02-24T07:27:56.094Z,3.23
2018-02-24T07:32:59.496Z,3.70
2018-02-24T07:38:02.983Z,3.43
2018-02-24T07:43:09.513Z,4.28
2018-02-24T07:48:13.318Z,4.22
2018-02-24T07:53:18.142Z,3.78
2018-02-24T07:58:21.905Z,4.12
2018-02-24T08:03:26.162Z,4.48
2018-02-24T08:08:29.618Z,4.70
2018-02-24T08:13:36.193Z,4.74
2018-02-24T08:18:39.651Z,4.40
2018-02-24T08:23:46.218Z,4.46
2018-02-24T08:28:50.641Z,4.27
2018-02-24T08:33:54.916Z,4.16
2018-02-24T08:39:07.846Z,4.31
2018-02-24T08:44:12.158Z,4.32
2018-02-24T08:49:19.974Z,4.40
2018-02-24T08:54:23.315Z,5.23
2018-02-24T08:59:32.053Z,4.89
2018-02-24T09:04:36.208Z,5.06
2018-02-24T09:09:40.885Z,5.51
2018-02-24T09:14:44.656Z,5.48
2018-02-24T09:19:48.293Z,5.74
2018-02-24T09:24:51.605Z,6.34
2018-02-24T09:29:58.762Z,6.12
2018-02-24T09:35:02.885Z,5.94
2018-02-24T09:40:07.082Z,6.14
2018-02-24T09:45:11.147Z,5.76
2018-02-24T09:50:14.925Z,5.57
2018-02-24T09:55:18.474Z,5.44
2018-02-24T10:00:26.638Z,5.33
2018-02-24T10:05:30.391Z,5.14
2018-02-24T10:10:40.126Z,5.90
2018-02-24T10:15:43.670Z,5.33
2018-02-24T10:20:50.746Z,5.42
2018-02-24T10:25:54.133Z,5.77
2018-02-24T10:30:58.746Z,5.78
2018-02-24T10:36:02.158Z,5.60
2018-02-24T10:41:09.117Z,5.20
2018-02-24T10:46:14.126Z,6.05
2018-02-24T10:51:18.313Z,5.33
2018-02-24T10:56:21.769Z,5.89
2018-02-24T11:01:25.467Z,6.08
2018-02-24T11:06:29.182Z,5.75
2018-02-24T11:11:34.634Z,5.78
2018-02-24T11:16:38.972Z,5.85
2018-02-24T11:21:45.872Z,5.49
2018-02-24T11:26:49.290Z,5.55
2018-02-24T11:31:56.384Z,5.56
2018-02-24T11:36:59.914Z,5.75
2018-02-24T11:42:07.209Z,5.67
2018-02-24T11:47:11.254Z,5.30
2018-02-24T11:52:17.317Z,5.79
2018-02-24T11:57:21.029Z,5.32
2018-02-24T12:02:29.630Z,5.85
2018-02-24T12:07:33.300Z,6.10
2018-02-24T12:12:38.036Z,5.24
2018-02-24T12:17:42.028Z,5.77
2018-02-24T12:22:45.658Z,6.27
2018-02-24T12:27:49.190Z,5.77
2018-02-24T12:32:56.058Z,5.80
2018-02-24T12:38:00.254Z,5.53
2018-02-24T12:43:07.054Z,6.02
2018-02-24T12:48:10.402Z,5.80
2018-02-24T12:53:15.431Z,6.19
2018-02-24T12:58:19.769Z,6.27
2018-02-24T13:03:24.059Z,6.42
2018-02-24T13:08:29.215Z,6.51
2018-02-24T13:13:33.462Z,6.62
2018-02-24T13:18:38.794Z,6.42
2018-02-24T13:23:42.434Z,5.88
2018-02-24T13:28:50.297Z,5.90
2018-02-24T13:33:54.046Z,5.87
2018-02-24T13:39:00.739Z,5.75
2018-02-24T13:44:05.171Z,5.56
2018-02-24T13:49:09.607Z,5.71
2018-02-24T13:54:13.271Z,5.50
2018-02-24T13:59:18.029Z,5.61
2018-02-24T14:04:22.157Z,5.46
2018-02-24T14:09:29.870Z,5.50
2018-02-24T14:14:33.202Z,5.45
2018-02-24T14:19:37.874Z,5.35
2018-02-24T14:24:41.430Z,5.60
2018-02-24T14:29:45.165Z,5.50
2018-02-24T14:34:49.254Z,5.45
2018-02-24T14:39:53.196Z,5.33
2018-02-24T14:44:56.939Z,5.28
2018-02-24T14:50:04.555Z,5.29
2018-02-24T14:55:08.707Z,5.39
2018-02-24T15:00:16.058Z,5.24
2018-02-24T15:05:20.139Z,5.33
2018-02-24T15:10:25.087Z,5.27
2018-02-24T15:15:28.775Z,5.28
2018-02-24T15:20:33.545Z,5.31
2018-02-24T15:25:37.352Z,5.29
2018-02-24T15:30:43.150Z,5.28
2018-02-24T15:35:47.789Z,5.62
2018-02-24T15:40:51.708Z,5.27
2018-02-24T15:45:55.006Z,5.21
2018-02-24T15:51:02.119Z,5.33
2018-02-24T15:56:06.703Z,5.26
2018-02-24T16:01:14.126Z,5.15
2018-02-24T16:06:18.040Z,5.10
2018-02-24T16:11:22.358Z,5.20
2018-02-24T16:16:25.790Z,5.20
2018-02-24T16:21:34.407Z,5.09
2018-02-24T16:26:37.661Z,5.29
2018-02-24T16:31:42.715Z,5.71
2018-02-24T16:36:46.265Z,4.97
2018-02-24T16:41:50.197Z,4.43
2018-02-24T16:46:53.670Z,4.04
2018-02-24T16:52:00.482Z,3.70
2018-02-24T16:57:03.810Z,3.54
2018-02-24T17:02:09.011Z,3.50
2018-02-24T17:07:12.540Z,3.53
2018-02-24T17:12:20.030Z,3.46
2018-02-24T17:17:24.177Z,3.44
2018-02-24T17:22:28.926Z,3.42
2018-02-24T17:27:33.085Z,3.39
2018-02-24T17:32:36.645Z,3.22
2018-02-24T17:37:40.611Z,3.21
2018-02-24T17:42:44.594Z,3.20
2018-02-24T17:47:49.531Z,3.08
2018-02-24T17:52:53.087Z,3.23
2018-02-24T17:58:01.387Z,3.15
2018-02-24T18:03:05.270Z,3.02
2018-02-24T18:08:09.650Z,3.12
2018-02-24T18:13:13.194Z,3.13
2018-02-24T18:18:17.467Z,2.92
2018-02-24T18:23:21.026Z,2.83
2018-02-24T18:28:25.150Z,2.78
2018-02-24T18:33:29.443Z,2.72
2018-02-24T18:38:34.205Z,2.62
2018-02-24T18:43:37.711Z,2.33
2018-02-24T18:48:41.760Z,2.32
2018-02-24T18:53:46.070Z,2.47
2018-02-24T18:58:49.959Z,2.38
2018-02-24T19:03:53.582Z,2.20
2018-02-24T19:08:57.494Z,2.24
2018-02-24T19:14:01.476Z,2.19
2018-02-24T19:19:06.187Z,1.97
2018-02-24T19:24:09.718Z,1.85
2018-02-24T19:29:13.775Z,1.95
2018-02-24T19:34:17.484Z,1.95
2018-02-24T19:39:25.614Z,1.78
2018-02-24T19:44:30.658Z,1.73
2018-02-24T19:49:42.172Z,1.70
2018-02-24T19:54:47.451Z,1.57
2018-02-24T19:59:51.533Z,1.46
2018-02-24T20:04:54.790Z,1.41
2018-02-24T20:09:58.758Z,1.35
2018-02-24T20:15:02.065Z,1.31
2018-02-24T20:20:05.594Z,1.31
2018-02-24T20:25:09.253Z,1.30
2018-02-24T20:30:13.768Z,1.22
2018-02-24T20:35:18.046Z,1.24
2018-02-24T20:40:22.294Z,1.11
2018-02-24T20:45:26.238Z,1.08
2018-02-24T20:50:30.943Z,0.91
2018-02-24T20:55:34.893Z,0.71
2018-02-24T21:00:41.661Z,0.67
2018-02-24T21:05:45.931Z,0.53
2018-02-24T21:10:50.332Z,0.33
2018-02-24T21:15:54.518Z,0.26
2018-02-24T21:20:58.149Z,0.07
2018-02-24T21:26:02.245Z,0.09
2018-02-24T21:31:06.766Z,0.02
2018-02-24T21:36:10.670Z,0.02
2018-02-24T21:41:14.942Z,-0.03
2018-02-24T21:46:18.919Z,-0.20
2018-02-24T21:51:22.592Z,-0.23
2018-02-24T21:56:26.681Z,-0.24
2018-02-24T22:01:30.983Z,-0.15
2018-02-24T22:06:35.147Z,-0.30
2018-02-24T22:11:38.979Z,-0.35
2018-02-24T22:16:42.577Z,-0.58
2018-02-24T22:21:50.518Z,-0.63
2018-02-24T22:26:54.207Z,-0.69
2018-02-24T22:32:07.149Z,-0.88
2018-02-24T22:37:11.868Z,-0.96
2018-02-24T22:42:15.350Z,-1.04
2018-02-24T22:47:19.122Z,-1.06
2018-02-24T22:52:23.500Z,-1.11
2018-02-24T22:57:27.419Z,-1.17
2018-02-24T23:02:30.741Z,-1.08
2018-02-24T23:07:35.906Z,-1.15
2018-02-24T23:12:39.394Z,-1.24
2018-02-24T23:17:42.876Z,-1.28
2018-02-24T23:22:46.259Z,-1.27
2018-02-24T23:27:49.753Z,-1.40
2018-02-24T23:32:53.855Z,-1.55
2018-02-24T23:37:58.543Z,-1.61
2018-02-24T23:43:02.173Z,-1.48
2018-02-24T23:48:05.944Z,-1.73
2018-02-24T23:53:10.278Z,-1.51
2018-02-24T23:58:13.910Z,-1.71
